sensor_id;sensor_type;location;lat;lon;timestamp;temperature;humidity
14095;DHT22;18096;48.142;16.290;2023-01-06T00:01:11;10.60;99.90
14095;DHT22;18096;48.142;16.290;2023-01-06T00:03:38;10.60;99.90
14095;DHT22;18096;48.142;16.290;2023-01-06T00:06:05;10.60;99.90
14095;DHT22;18096;48.142;16.290;2023-01-06T00:08:32;10.60;99.90
14095;DHT22;18096;48.142;16.290;2023-01-06T00:10:58;10.60;99.90
14095;DHT22;18096;48.142;16.290;2023-01-06T00:13:24;10.60;99.90
14095;DHT22;18096;48.142;16.290;2023-01-06T00:15:49;10.50;99.90
14095;DHT22;18096;48.142;16.290;2023-01-06T00:18:15;10.50;99.90
14095;DHT22;18096;48.142;16.290;2023-01-06T00:20:41;10.50;99.90
14095;DHT22;18096;48.142;16.290;2023-01-06T00:23:06;10.50;99.90
14095;DHT22;18096;48.142;16.290;2023-01-06T00:25:32;10.50;99.90
14095;DHT22;18096;48.142;16.290;2023-01-06T00:27:58;10.50;99.90
14095;DHT22;18096;48.142;16.290;2023-01-06T00:30:23;10.50;99.90
14095;DHT22;18096;48.142;16.290;2023-01-06T00:32:50;10.50;99.90
14095;DHT22;18096;48.142;16.290;2023-01-06T00:35:15;10.50;99.90
14095;DHT22;18096;48.142;16.290;2023-01-06T00:37:41;10.50;99.90
14095;DHT22;18096;48.142;16.290;2023-01-06T00:40:07;10.50;99.90
14095;DHT22;18096;48.142;16.290;2023-01-06T00:42:33;10.50;99.90
14095;DHT22;18096;48.142;16.290;2023-01-06T00:44:59;10.50;99.90
14095;DHT22;18096;48.142;16.290;2023-01-06T00:47:24;10.50;99.90
14095;DHT22;18096;48.142;16.290;2023-01-06T00:49:50;10.50;99.90
14095;DHT22;18096;48.142;16.290;2023-01-06T00:52:15;10.50;99.90
14095;DHT22;18096;48.142;16.290;2023-01-06T00:54:41;10.50;99.90
14095;DHT22;18096;48.142;16.290;2023-01-06T00:57:07;10.50;99.90
14095;DHT22;18096;48.142;16.290;2023-01-06T00:59:33;10.50;99.90
14095;DHT22;18096;48.142;16.290;2023-01-06T01:01:59;10.50;99.90
14095;DHT22;18096;48.142;16.290;2023-01-06T01:04:25;10.50;99.90
14095;DHT22;18096;48.142;16.290;2023-01-06T01:06:52;10.50;99.90
14095;DHT22;18096;48.142;16.290;2023-01-06T01:09:20;10.50;99.90
14095;DHT22;18096;48.142;16.290;2023-01-06T01:11:47;10.50;99.90
14095;DHT22;18096;48.142;16.290;2023-01-06T01:14:31;10.50;99.90
14095;DHT22;18096;48.142;16.290;2023-01-06T01:16:57;10.50;99.90
14095;DHT22;18096;48.142;16.290;2023-01-06T01:19:23;10.50;99.90
14095;DHT22;18096;48.142;16.290;2023-01-06T01:21:50;10.50;99.90
14095;DHT22;18096;48.142;16.290;2023-01-06T01:24:15;10.50;99.90
14095;DHT22;18096;48.142;16.290;2023-01-06T01:26:41;10.60;99.90
14095;DHT22;18096;48.142;16.290;2023-01-06T01:29:10;10.60;99.90
14095;DHT22;18096;48.142;16.290;2023-01-06T01:31:36;10.60;99.90
14095;DHT22;18096;48.142;16.290;2023-01-06T01:34:02;10.60;99.90
14095;DHT22;18096;48.142;16.290;2023-01-06T01:36:28;10.60;99.90
14095;DHT22;18096;48.142;16.290;2023-01-06T01:38:55;10.60;99.90
14095;DHT22;18096;48.142;16.290;2023-01-06T01:41:22;10.50;99.90
14095;DHT22;18096;48.142;16.290;2023-01-06T01:43:52;10.50;99.90
14095;DHT22;18096;48.142;16.290;2023-01-06T01:46:25;10.50;99.90
14095;DHT22;18096;48.142;16.290;2023-01-06T01:48:56;10.50;99.90
14095;DHT22;18096;48.142;16.290;2023-01-06T01:51:27;10.50;99.90
14095;DHT22;18096;48.142;16.290;2023-01-06T01:53:58;10.50;99.90
14095;DHT22;18096;48.142;16.290;2023-01-06T01:56:30;10.50;99.90
14095;DHT22;18096;48.142;16.290;2023-01-06T01:59:11;10.50;99.90
14095;DHT22;18096;48.142;16.290;2023-01-06T02:01:37;10.50;99.90
14095;DHT22;18096;48.142;16.290;2023-01-06T02:04:03;10.40;99.90
14095;DHT22;18096;48.142;16.290;2023-01-06T02:06:29;10.40;99.90
14095;DHT22;18096;48.142;16.290;2023-01-06T02:11:37;10.40;99.90
14095;DHT22;18096;48.142;16.290;2023-01-06T02:14:15;10.40;99.90
14095;DHT22;18096;48.142;16.290;2023-01-06T02:17:02;10.50;99.90
14095;DHT22;18096;48.142;16.290;2023-01-06T02:25:17;10.50;99.90
14095;DHT22;18096;48.142;16.290;2023-01-06T02:33:53;10.50;99.90
14095;DHT22;18096;48.142;16.290;2023-01-06T02:47:05;10.50;99.10
14095;DHT22;18096;48.142;16.290;2023-01-06T02:49:57;10.50;98.80
14095;DHT22;18096;48.142;16.290;2023-01-06T02:52:32;10.50;98.80
14095;DHT22;18096;48.142;16.290;2023-01-06T02:55:09;10.40;98.80
14095;DHT22;18096;48.142;16.290;2023-01-06T02:57:43;10.40;98.70
14095;DHT22;18096;48.142;16.290;2023-01-06T03:00:35;10.40;98.60
14095;DHT22;18096;48.142;16.290;2023-01-06T03:03:06;10.40;98.60
14095;DHT22;18096;48.142;16.290;2023-01-06T03:05:35;10.40;98.60
14095;DHT22;18096;48.142;16.290;2023-01-06T03:08:06;10.40;98.50
14095;DHT22;18096;48.142;16.290;2023-01-06T03:10:33;10.40;98.50
14095;DHT22;18096;48.142;16.290;2023-01-06T03:13:25;10.40;98.60
14095;DHT22;18096;48.142;16.290;2023-01-06T03:15:51;10.40;98.50
14095;DHT22;18096;48.142;16.290;2023-01-06T03:18:17;10.30;98.50
14095;DHT22;18096;48.142;16.290;2023-01-06T03:20:44;10.30;98.60
14095;DHT22;18096;48.142;16.290;2023-01-06T03:23:12;10.30;98.70
14095;DHT22;18096;48.142;16.290;2023-01-06T03:25:38;10.30;98.90
14095;DHT22;18096;48.142;16.290;2023-01-06T03:28:04;10.20;99.00
14095;DHT22;18096;48.142;16.290;2023-01-06T03:30:40;10.20;99.10
14095;DHT22;18096;48.142;16.290;2023-01-06T03:33:20;10.10;99.20
14095;DHT22;18096;48.142;16.290;2023-01-06T03:41:37;10.10;99.50
14095;DHT22;18096;48.142;16.290;2023-01-06T03:44:47;10.10;99.60
14095;DHT22;18096;48.142;16.290;2023-01-06T03:47:24;10.10;99.70
14095;DHT22;18096;48.142;16.290;2023-01-06T03:49:57;10.00;99.60
14095;DHT22;18096;48.142;16.290;2023-01-06T03:52:30;10.00;99.70
14095;DHT22;18096;48.142;16.290;2023-01-06T03:55:02;10.00;99.80
14095;DHT22;18096;48.142;16.290;2023-01-06T03:57:34;10.00;99.90
14095;DHT22;18096;48.142;16.290;2023-01-06T04:02:36;10.00;99.90
14095;DHT22;18096;48.142;16.290;2023-01-06T04:05:07;9.90;99.90
14095;DHT22;18096;48.142;16.290;2023-01-06T04:07:33;9.90;99.90
14095;DHT22;18096;48.142;16.290;2023-01-06T04:09:58;9.90;99.90
14095;DHT22;18096;48.142;16.290;2023-01-06T04:12:24;9.90;99.90
14095;DHT22;18096;48.142;16.290;2023-01-06T04:15:13;9.80;99.90
14095;DHT22;18096;48.142;16.290;2023-01-06T04:17:40;9.80;99.90
14095;DHT22;18096;48.142;16.290;2023-01-06T04:20:08;9.80;99.90
14095;DHT22;18096;48.142;16.290;2023-01-06T04:22:35;9.80;99.90
14095;DHT22;18096;48.142;16.290;2023-01-06T04:25:01;9.80;99.90
14095;DHT22;18096;48.142;16.290;2023-01-06T04:27:27;9.80;99.90
14095;DHT22;18096;48.142;16.290;2023-01-06T04:29:53;9.80;99.90
14095;DHT22;18096;48.142;16.290;2023-01-06T04:32:19;9.70;99.90
14095;DHT22;18096;48.142;16.290;2023-01-06T04:34:44;9.70;99.90
14095;DHT22;18096;48.142;16.290;2023-01-06T04:37:10;9.70;99.90
14095;DHT22;18096;48.142;16.290;2023-01-06T04:39:36;9.70;99.90
14095;DHT22;18096;48.142;16.290;2023-01-06T04:42:01;9.70;99.90
14095;DHT22;18096;48.142;16.290;2023-01-06T04:44:27;9.70;99.90
14095;DHT22;18096;48.142;16.290;2023-01-06T04:46:53;9.70;99.90
14095;DHT22;18096;48.142;16.290;2023-01-06T04:49:19;9.70;99.90
14095;DHT22;18096;48.142;16.290;2023-01-06T04:51:44;9.70;99.90
14095;DHT22;18096;48.142;16.290;2023-01-06T04:54:10;9.70;99.90
14095;DHT22;18096;48.142;16.290;2023-01-06T04:56:36;9.70;99.90
14095;DHT22;18096;48.142;16.290;2023-01-06T04:59:02;9.60;99.90
14095;DHT22;18096;48.142;16.290;2023-01-06T05:01:28;9.60;99.90
14095;DHT22;18096;48.142;16.290;2023-01-06T05:03:53;9.60;99.90
14095;DHT22;18096;48.142;16.290;2023-01-06T05:06:19;9.60;99.90
14095;DHT22;18096;48.142;16.290;2023-01-06T05:08:45;9.60;99.90
14095;DHT22;18096;48.142;16.290;2023-01-06T05:11:19;9.60;99.90
14095;DHT22;18096;48.142;16.290;2023-01-06T05:13:45;9.60;99.90
14095;DHT22;18096;48.142;16.290;2023-01-06T05:16:19;9.60;99.90
14095;DHT22;18096;48.142;16.290;2023-01-06T05:18:45;9.60;99.90
14095;DHT22;18096;48.142;16.290;2023-01-06T05:21:11;9.60;99.90
14095;DHT22;18096;48.142;16.290;2023-01-06T05:23:37;9.60;99.90
14095;DHT22;18096;48.142;16.290;2023-01-06T05:26:04;9.70;99.90
14095;DHT22;18096;48.142;16.290;2023-01-06T05:28:30;9.70;99.90
14095;DHT22;18096;48.142;16.290;2023-01-06T05:31:03;9.80;99.90
14095;DHT22;18096;48.142;16.290;2023-01-06T05:33:30;9.80;99.90
14095;DHT22;18096;48.142;16.290;2023-01-06T05:36:01;9.80;99.90
14095;DHT22;18096;48.142;16.290;2023-01-06T05:38:27;9.70;99.90
14095;DHT22;18096;48.142;16.290;2023-01-06T05:40:53;9.70;99.90
14095;DHT22;18096;48.142;16.290;2023-01-06T05:43:21;9.70;99.90
14095;DHT22;18096;48.142;16.290;2023-01-06T05:45:47;9.70;99.90
14095;DHT22;18096;48.142;16.290;2023-01-06T05:48:13;9.70;99.90
14095;DHT22;18096;48.142;16.290;2023-01-06T05:50:38;9.70;99.90
14095;DHT22;18096;48.142;16.290;2023-01-06T05:53:04;9.80;99.90
14095;DHT22;18096;48.142;16.290;2023-01-06T05:55:30;9.80;99.90
14095;DHT22;18096;48.142;16.290;2023-01-06T05:57:56;9.80;99.90
14095;DHT22;18096;48.142;16.290;2023-01-06T06:00:21;9.90;99.90
14095;DHT22;18096;48.142;16.290;2023-01-06T06:02:47;9.90;99.90
14095;DHT22;18096;48.142;16.290;2023-01-06T06:05:13;9.90;99.90
14095;DHT22;18096;48.142;16.290;2023-01-06T06:07:38;10.00;99.90
14095;DHT22;18096;48.142;16.290;2023-01-06T06:10:04;9.90;99.90
14095;DHT22;18096;48.142;16.290;2023-01-06T06:12:30;9.90;99.90
14095;DHT22;18096;48.142;16.290;2023-01-06T06:14:56;9.90;99.90
14095;DHT22;18096;48.142;16.290;2023-01-06T06:17:22;9.90;99.90
14095;DHT22;18096;48.142;16.290;2023-01-06T06:19:48;9.90;99.90
14095;DHT22;18096;48.142;16.290;2023-01-06T06:22:14;9.90;99.90
14095;DHT22;18096;48.142;16.290;2023-01-06T06:24:39;9.90;99.90
14095;DHT22;18096;48.142;16.290;2023-01-06T06:27:05;9.90;99.90
14095;DHT22;18096;48.142;16.290;2023-01-06T06:29:31;10.00;99.90
14095;DHT22;18096;48.142;16.290;2023-01-06T06:31:56;9.90;99.90
14095;DHT22;18096;48.142;16.290;2023-01-06T06:34:22;10.00;99.90
14095;DHT22;18096;48.142;16.290;2023-01-06T06:36:48;10.00;99.90
14095;DHT22;18096;48.142;16.290;2023-01-06T06:39:13;10.00;99.90
14095;DHT22;18096;48.142;16.290;2023-01-06T06:41:39;10.00;99.90
14095;DHT22;18096;48.142;16.290;2023-01-06T06:44:05;10.00;99.90
14095;DHT22;18096;48.142;16.290;2023-01-06T06:46:30;10.00;99.90
14095;DHT22;18096;48.142;16.290;2023-01-06T06:48:56;10.10;99.90
14095;DHT22;18096;48.142;16.290;2023-01-06T06:51:22;10.10;99.90
14095;DHT22;18096;48.142;16.290;2023-01-06T06:53:48;10.10;99.90
14095;DHT22;18096;48.142;16.290;2023-01-06T06:56:15;10.10;99.90
14095;DHT22;18096;48.142;16.290;2023-01-06T06:58:41;10.10;99.90
14095;DHT22;18096;48.142;16.290;2023-01-06T07:01:09;10.10;99.90
14095;DHT22;18096;48.142;16.290;2023-01-06T07:03:35;10.10;99.90
14095;DHT22;18096;48.142;16.290;2023-01-06T07:06:01;10.10;99.90
14095;DHT22;18096;48.142;16.290;2023-01-06T07:08:28;10.10;99.90
14095;DHT22;18096;48.142;16.290;2023-01-06T07:10:54;10.00;99.90
14095;DHT22;18096;48.142;16.290;2023-01-06T07:13:19;10.10;99.90
14095;DHT22;18096;48.142;16.290;2023-01-06T07:15:45;10.10;99.90
14095;DHT22;18096;48.142;16.290;2023-01-06T07:18:11;10.10;99.90
14095;DHT22;18096;48.142;16.290;2023-01-06T07:20:37;10.10;99.90
14095;DHT22;18096;48.142;16.290;2023-01-06T07:23:03;10.10;99.90
14095;DHT22;18096;48.142;16.290;2023-01-06T07:25:29;10.00;99.90
14095;DHT22;18096;48.142;16.290;2023-01-06T07:27:56;10.10;99.90
14095;DHT22;18096;48.142;16.290;2023-01-06T07:30:23;10.10;99.90
14095;DHT22;18096;48.142;16.290;2023-01-06T07:32:51;10.20;99.90
14095;DHT22;18096;48.142;16.290;2023-01-06T07:35:17;10.20;99.90
14095;DHT22;18096;48.142;16.290;2023-01-06T07:37:43;10.20;99.90
14095;DHT22;18096;48.142;16.290;2023-01-06T07:40:10;10.20;99.90
14095;DHT22;18096;48.142;16.290;2023-01-06T07:42:36;10.20;99.90
14095;DHT22;18096;48.142;16.290;2023-01-06T07:45:03;10.30;99.90
14095;DHT22;18096;48.142;16.290;2023-01-06T07:47:29;10.30;99.90
14095;DHT22;18096;48.142;16.290;2023-01-06T07:49:55;10.30;99.90
14095;DHT22;18096;48.142;16.290;2023-01-06T07:52:20;10.30;99.90
14095;DHT22;18096;48.142;16.290;2023-01-06T07:54:46;10.30;99.90
14095;DHT22;18096;48.142;16.290;2023-01-06T07:57:12;10.20;99.90
14095;DHT22;18096;48.142;16.290;2023-01-06T07:59:37;10.20;99.90
14095;DHT22;18096;48.142;16.290;2023-01-06T08:02:03;10.30;99.90
14095;DHT22;18096;48.142;16.290;2023-01-06T08:04:29;10.30;99.90
14095;DHT22;18096;48.142;16.290;2023-01-06T08:06:55;10.30;99.90
14095;DHT22;18096;48.142;16.290;2023-01-06T08:09:20;10.30;99.90
14095;DHT22;18096;48.142;16.290;2023-01-06T08:11:46;10.40;99.90
14095;DHT22;18096;48.142;16.290;2023-01-06T08:14:12;10.40;99.90
14095;DHT22;18096;48.142;16.290;2023-01-06T08:16:38;10.50;99.90
14095;DHT22;18096;48.142;16.290;2023-01-06T08:19:04;10.40;99.90
14095;DHT22;18096;48.142;16.290;2023-01-06T08:21:30;10.40;99.90
14095;DHT22;18096;48.142;16.290;2023-01-06T08:23:56;10.50;99.90
14095;DHT22;18096;48.142;16.290;2023-01-06T08:26:22;10.50;99.90
14095;DHT22;18096;48.142;16.290;2023-01-06T08:28:48;10.50;99.90
14095;DHT22;18096;48.142;16.290;2023-01-06T08:31:16;10.60;99.90
14095;DHT22;18096;48.142;16.290;2023-01-06T08:33:43;10.60;99.90
14095;DHT22;18096;48.142;16.290;2023-01-06T08:36:13;10.70;99.90
14095;DHT22;18096;48.142;16.290;2023-01-06T08:38:39;10.70;99.90
14095;DHT22;18096;48.142;16.290;2023-01-06T08:41:05;10.70;99.90
14095;DHT22;18096;48.142;16.290;2023-01-06T08:43:31;10.70;99.90
14095;DHT22;18096;48.142;16.290;2023-01-06T08:46:01;10.60;99.90
14095;DHT22;18096;48.142;16.290;2023-01-06T08:48:28;10.60;99.90
14095;DHT22;18096;48.142;16.290;2023-01-06T08:50:54;10.60;99.90
14095;DHT22;18096;48.142;16.290;2023-01-06T08:53:21;10.60;99.90
14095;DHT22;18096;48.142;16.290;2023-01-06T08:55:46;10.60;99.90
14095;DHT22;18096;48.142;16.290;2023-01-06T08:58:12;10.70;99.90
14095;DHT22;18096;48.142;16.290;2023-01-06T09:00:39;10.70;99.90
14095;DHT22;18096;48.142;16.290;2023-01-06T09:03:05;10.80;99.90
14095;DHT22;18096;48.142;16.290;2023-01-06T09:05:31;10.80;99.90
14095;DHT22;18096;48.142;16.290;2023-01-06T09:07:57;10.80;99.90
14095;DHT22;18096;48.142;16.290;2023-01-06T09:10:23;10.90;99.90
14095;DHT22;18096;48.142;16.290;2023-01-06T09:12:49;11.00;99.90
14095;DHT22;18096;48.142;16.290;2023-01-06T09:15:15;11.00;99.90
14095;DHT22;18096;48.142;16.290;2023-01-06T09:17:41;11.00;99.90
14095;DHT22;18096;48.142;16.290;2023-01-06T09:20:07;11.00;99.90
14095;DHT22;18096;48.142;16.290;2023-01-06T09:22:32;11.00;99.90
14095;DHT22;18096;48.142;16.290;2023-01-06T09:24:58;11.00;99.90
14095;DHT22;18096;48.142;16.290;2023-01-06T09:27:24;10.90;99.90
14095;DHT22;18096;48.142;16.290;2023-01-06T09:29:49;10.90;99.90
14095;DHT22;18096;48.142;16.290;2023-01-06T09:32:15;10.90;99.90
14095;DHT22;18096;48.142;16.290;2023-01-06T09:34:41;10.80;99.90
14095;DHT22;18096;48.142;16.290;2023-01-06T09:37:07;10.80;99.90
14095;DHT22;18096;48.142;16.290;2023-01-06T09:39:33;10.90;99.90
14095;DHT22;18096;48.142;16.290;2023-01-06T09:45:09;10.90;99.90
14095;DHT22;18096;48.142;16.290;2023-01-06T09:47:40;10.90;99.90
14095;DHT22;18096;48.142;16.290;2023-01-06T09:55:35;11.10;99.90
14095;DHT22;18096;48.142;16.290;2023-01-06T09:58:07;11.10;99.90
14095;DHT22;18096;48.142;16.290;2023-01-06T10:00:47;11.10;99.90
14095;DHT22;18096;48.142;16.290;2023-01-06T10:03:25;11.10;99.90
14095;DHT22;18096;48.142;16.290;2023-01-06T10:09:06;11.20;99.90
14095;DHT22;18096;48.142;16.290;2023-01-06T10:27:40;11.50;99.90
14095;DHT22;18096;48.142;16.290;2023-01-06T10:30:31;11.60;99.90
14095;DHT22;18096;48.142;16.290;2023-01-06T10:33:01;11.70;99.90
14095;DHT22;18096;48.142;16.290;2023-01-06T10:35:27;11.70;99.90
14095;DHT22;18096;48.142;16.290;2023-01-06T10:37:55;11.80;99.90
14095;DHT22;18096;48.142;16.290;2023-01-06T10:40:26;11.90;99.90
14095;DHT22;18096;48.142;16.290;2023-01-06T10:43:03;11.90;99.90
14095;DHT22;18096;48.142;16.290;2023-01-06T10:45:45;11.90;99.90
14095;DHT22;18096;48.142;16.290;2023-01-06T10:48:22;12.00;99.90
14095;DHT22;18096;48.142;16.290;2023-01-06T10:50:49;12.00;99.90
14095;DHT22;18096;48.142;16.290;2023-01-06T10:53:15;12.00;99.90
14095;DHT22;18096;48.142;16.290;2023-01-06T10:55:57;12.00;99.90
14095;DHT22;18096;48.142;16.290;2023-01-06T10:58:44;12.00;99.90
14095;DHT22;18096;48.142;16.290;2023-01-06T11:01:15;12.00;99.90
14095;DHT22;18096;48.142;16.290;2023-01-06T11:03:41;12.10;99.90
14095;DHT22;18096;48.142;16.290;2023-01-06T11:06:09;12.20;99.90
14095;DHT22;18096;48.142;16.290;2023-01-06T11:08:39;12.20;99.90
14095;DHT22;18096;48.142;16.290;2023-01-06T11:11:13;12.30;99.90
14095;DHT22;18096;48.142;16.290;2023-01-06T11:13:40;12.30;99.90
14095;DHT22;18096;48.142;16.290;2023-01-06T11:16:37;12.40;99.90
14095;DHT22;18096;48.142;16.290;2023-01-06T11:19:05;12.40;99.90
14095;DHT22;18096;48.142;16.290;2023-01-06T11:24:23;12.50;99.90
14095;DHT22;18096;48.142;16.290;2023-01-06T11:27:00;12.50;99.90
14095;DHT22;18096;48.142;16.290;2023-01-06T11:29:34;12.50;99.90
14095;DHT22;18096;48.142;16.290;2023-01-06T11:32:22;12.50;99.90
14095;DHT22;18096;48.142;16.290;2023-01-06T11:35:02;12.60;99.90
14095;DHT22;18096;48.142;16.290;2023-01-06T11:37:37;12.60;99.90
14095;DHT22;18096;48.142;16.290;2023-01-06T11:40:20;12.60;99.90
14095;DHT22;18096;48.142;16.290;2023-01-06T11:42:54;12.60;99.90
14095;DHT22;18096;48.142;16.290;2023-01-06T11:45:38;12.70;99.90
14095;DHT22;18096;48.142;16.290;2023-01-06T11:48:13;12.70;99.90
14095;DHT22;18096;48.142;16.290;2023-01-06T11:50:40;12.70;99.90
14095;DHT22;18096;48.142;16.290;2023-01-06T11:53:16;12.70;99.90
14095;DHT22;18096;48.142;16.290;2023-01-06T11:55:57;12.70;99.90
14095;DHT22;18096;48.142;16.290;2023-01-06T12:04:16;12.80;99.90
14095;DHT22;18096;48.142;16.290;2023-01-06T12:06:44;12.70;99.90
14095;DHT22;18096;48.142;16.290;2023-01-06T12:09:32;12.70;99.90
14095;DHT22;18096;48.142;16.290;2023-01-06T12:12:04;12.60;99.90
14095;DHT22;18096;48.142;16.290;2023-01-06T12:14:36;12.60;99.90
14095;DHT22;18096;48.142;16.290;2023-01-06T12:23:17;12.60;99.90
14095;DHT22;18096;48.142;16.290;2023-01-06T12:25:45;12.70;99.90
14095;DHT22;18096;48.142;16.290;2023-01-06T12:28:29;12.70;99.90
14095;DHT22;18096;48.142;16.290;2023-01-06T12:31:12;12.70;99.90
14095;DHT22;18096;48.142;16.290;2023-01-06T12:36:43;12.70;99.90
14095;DHT22;18096;48.142;16.290;2023-01-06T12:41:51;12.70;99.90
14095;DHT22;18096;48.142;16.290;2023-01-06T12:44:39;12.70;99.90
14095;DHT22;18096;48.142;16.290;2023-01-06T12:47:16;12.80;99.90
14095;DHT22;18096;48.142;16.290;2023-01-06T12:49:50;12.80;99.90
14095;DHT22;18096;48.142;16.290;2023-01-06T12:52:43;12.80;99.90
14095;DHT22;18096;48.142;16.290;2023-01-06T12:55:15;12.80;99.90
14095;DHT22;18096;48.142;16.290;2023-01-06T12:57:53;12.80;99.90
14095;DHT22;18096;48.142;16.290;2023-01-06T13:14:30;12.90;99.90
14095;DHT22;18096;48.142;16.290;2023-01-06T13:19:51;12.90;99.90
14095;DHT22;18096;48.142;16.290;2023-01-06T13:40:57;12.90;99.90
14095;DHT22;18096;48.142;16.290;2023-01-06T13:43:29;12.90;99.90
14095;DHT22;18096;48.142;16.290;2023-01-06T13:46:04;12.80;99.90
14095;DHT22;18096;48.142;16.290;2023-01-06T13:48:34;12.90;99.90
14095;DHT22;18096;48.142;16.290;2023-01-06T13:51:06;12.90;99.90
14095;DHT22;18096;48.142;16.290;2023-01-06T13:53:37;12.90;99.90
14095;DHT22;18096;48.142;16.290;2023-01-06T13:58:49;12.80;99.90
14095;DHT22;18096;48.142;16.290;2023-01-06T14:03:49;12.70;99.90
14095;DHT22;18096;48.142;16.290;2023-01-06T14:08:52;12.60;99.90
14095;DHT22;18096;48.142;16.290;2023-01-06T14:13:53;12.60;99.90
14095;DHT22;18096;48.142;16.290;2023-01-06T14:16:19;12.50;99.90
14095;DHT22;18096;48.142;16.290;2023-01-06T14:18:49;12.50;99.90
14095;DHT22;18096;48.142;16.290;2023-01-06T14:21:17;12.40;99.90
14095;DHT22;18096;48.142;16.290;2023-01-06T14:24:05;12.40;99.90
14095;DHT22;18096;48.142;16.290;2023-01-06T14:26:48;12.40;99.90
14095;DHT22;18096;48.142;16.290;2023-01-06T14:34:54;12.30;99.90
14095;DHT22;18096;48.142;16.290;2023-01-06T14:37:43;12.20;99.90
14095;DHT22;18096;48.142;16.290;2023-01-06T14:40:23;12.20;99.90
14095;DHT22;18096;48.142;16.290;2023-01-06T14:42:50;12.20;99.90
14095;DHT22;18096;48.142;16.290;2023-01-06T14:47:51;12.10;99.90
14095;DHT22;18096;48.142;16.290;2023-01-06T14:50:51;12.10;99.90
14095;DHT22;18096;48.142;16.290;2023-01-06T14:53:38;12.00;99.90
14095;DHT22;18096;48.142;16.290;2023-01-06T14:56:16;12.00;99.90
14095;DHT22;18096;48.142;16.290;2023-01-06T14:58:42;12.00;99.90
14095;DHT22;18096;48.142;16.290;2023-01-06T15:01:25;12.00;99.90
14095;DHT22;18096;48.142;16.290;2023-01-06T15:03:58;12.00;99.90
14095;DHT22;18096;48.142;16.290;2023-01-06T15:06:26;11.90;99.90
14095;DHT22;18096;48.142;16.290;2023-01-06T15:08:53;11.90;99.90
14095;DHT22;18096;48.142;16.290;2023-01-06T15:11:30;11.90;99.90
14095;DHT22;18096;48.142;16.290;2023-01-06T15:13:56;11.90;99.90
14095;DHT22;18096;48.142;16.290;2023-01-06T15:16:39;11.80;99.90
14095;DHT22;18096;48.142;16.290;2023-01-06T15:19:07;11.80;99.90
14095;DHT22;18096;48.142;16.290;2023-01-06T15:21:41;11.80;99.90
14095;DHT22;18096;48.142;16.290;2023-01-06T15:24:25;11.80;99.90
14095;DHT22;18096;48.142;16.290;2023-01-06T15:26:54;11.80;99.90
14095;DHT22;18096;48.142;16.290;2023-01-06T15:29:23;11.70;99.90
14095;DHT22;18096;48.142;16.290;2023-01-06T15:31:52;11.70;99.90
14095;DHT22;18096;48.142;16.290;2023-01-06T15:34:24;11.70;99.90
14095;DHT22;18096;48.142;16.290;2023-01-06T15:36:53;11.50;99.90
14095;DHT22;18096;48.142;16.290;2023-01-06T15:39:28;11.50;99.90
14095;DHT22;18096;48.142;16.290;2023-01-06T15:48:39;11.30;99.90
14095;DHT22;18096;48.142;16.290;2023-01-06T15:51:15;11.20;99.90
14095;DHT22;18096;48.142;16.290;2023-01-06T15:53:57;11.10;99.90
14095;DHT22;18096;48.142;16.290;2023-01-06T15:56:25;11.10;99.90
14095;DHT22;18096;48.142;16.290;2023-01-06T15:58:53;11.00;99.90
14095;DHT22;18096;48.142;16.290;2023-01-06T16:01:22;11.00;99.90
14095;DHT22;18096;48.142;16.290;2023-01-06T16:03:58;10.90;99.90
14095;DHT22;18096;48.142;16.290;2023-01-06T16:06:31;10.80;99.90
14095;DHT22;18096;48.142;16.290;2023-01-06T16:11:41;10.80;99.90
14095;DHT22;18096;48.142;16.290;2023-01-06T16:16:52;10.60;99.90
14095;DHT22;18096;48.142;16.290;2023-01-06T16:19:20;10.60;99.90
14095;DHT22;18096;48.142;16.290;2023-01-06T16:21:50;10.60;99.90
14095;DHT22;18096;48.142;16.290;2023-01-06T16:24:22;10.60;99.90
14095;DHT22;18096;48.142;16.290;2023-01-06T16:26:55;10.50;99.90
14095;DHT22;18096;48.142;16.290;2023-01-06T16:31:54;10.30;99.90
14095;DHT22;18096;48.142;16.290;2023-01-06T16:36:51;10.30;99.90
14095;DHT22;18096;48.142;16.290;2023-01-06T16:39:18;10.20;99.90
14095;DHT22;18096;48.142;16.290;2023-01-06T16:42:55;10.20;99.90
14095;DHT22;18096;48.142;16.290;2023-01-06T16:47:37;10.10;99.90
14095;DHT22;18096;48.142;16.290;2023-01-06T16:50:24;10.00;99.90
14095;DHT22;18096;48.142;16.290;2023-01-06T16:53:16;10.00;99.90
14095;DHT22;18096;48.142;16.290;2023-01-06T16:55:43;9.90;99.90
14095;DHT22;18096;48.142;16.290;2023-01-06T16:58:26;9.90;99.90
14095;DHT22;18096;48.142;16.290;2023-01-06T17:00:53;9.80;99.90
14095;DHT22;18096;48.142;16.290;2023-01-06T17:03:21;9.80;99.90
14095;DHT22;18096;48.142;16.290;2023-01-06T17:05:48;9.80;99.90
14095;DHT22;18096;48.142;16.290;2023-01-06T17:08:16;9.80;99.90
14095;DHT22;18096;48.142;16.290;2023-01-06T17:10:42;9.80;99.90
14095;DHT22;18096;48.142;16.290;2023-01-06T17:13:13;9.80;99.90
14095;DHT22;18096;48.142;16.290;2023-01-06T17:16:17;9.70;99.90
14095;DHT22;18096;48.142;16.290;2023-01-06T17:18:56;9.70;99.90
14095;DHT22;18096;48.142;16.290;2023-01-06T17:21:27;9.70;99.90
14095;DHT22;18096;48.142;16.290;2023-01-06T17:24:23;9.70;99.90
14095;DHT22;18096;48.142;16.290;2023-01-06T17:27:20;9.80;99.90
14095;DHT22;18096;48.142;16.290;2023-01-06T17:29:48;9.90;99.90
14095;DHT22;18096;48.142;16.290;2023-01-06T17:32:18;10.00;99.90
14095;DHT22;18096;48.142;16.290;2023-01-06T17:34:44;10.00;99.90
14095;DHT22;18096;48.142;16.290;2023-01-06T17:37:21;10.10;99.90
14095;DHT22;18096;48.142;16.290;2023-01-06T17:39:47;10.00;99.90
14095;DHT22;18096;48.142;16.290;2023-01-06T17:49:58;10.10;99.90
14095;DHT22;18096;48.142;16.290;2023-01-06T17:52:36;10.20;99.90
14095;DHT22;18096;48.142;16.290;2023-01-06T17:57:51;10.20;99.90
14095;DHT22;18096;48.142;16.290;2023-01-06T18:00:35;10.10;99.90
14095;DHT22;18096;48.142;16.290;2023-01-06T18:03:01;10.20;99.90
14095;DHT22;18096;48.142;16.290;2023-01-06T18:10:30;10.10;99.90
14095;DHT22;18096;48.142;16.290;2023-01-06T18:12:57;10.10;99.90
14095;DHT22;18096;48.142;16.290;2023-01-06T18:17:52;10.10;99.90
14095;DHT22;18096;48.142;16.290;2023-01-06T18:20:18;10.10;99.90
14095;DHT22;18096;48.142;16.290;2023-01-06T18:22:44;10.20;99.90
14095;DHT22;18096;48.142;16.290;2023-01-06T18:25:22;10.20;99.90
14095;DHT22;18096;48.142;16.290;2023-01-06T18:27:49;10.20;99.90
14095;DHT22;18096;48.142;16.290;2023-01-06T18:30:23;10.30;99.90
14095;DHT22;18096;48.142;16.290;2023-01-06T18:32:52;10.30;99.90